createdAt,value
2022-12-16T00:01:16.187Z,6.10
2022-12-16T00:03:48.417Z,5.96
2022-12-16T00:06:17.104Z,6.06
2022-12-16T00:08:45.586Z,6.24
2022-12-16T00:11:14.140Z,6.65
2022-12-16T00:13:42.411Z,6.17
2022-12-16T00:16:12.274Z,5.94
2022-12-16T00:18:42.480Z,6.12
2022-12-16T00:21:11.258Z,6.48
2022-12-16T00:23:41.662Z,6.52
2022-12-16T00:26:10.237Z,6.54
2022-12-16T00:28:38.545Z,6.61
2022-12-16T00:31:07.568Z,6.69
2022-12-16T00:33:36.372Z,6.79
2022-12-16T00:36:06.791Z,6.85
2022-12-16T00:38:35.322Z,6.90
2022-12-16T00:41:03.673Z,6.77
2022-12-16T00:43:32.328Z,6.61
2022-12-16T00:46:01.028Z,6.38
2022-12-16T00:48:29.500Z,6.30
2022-12-16T00:50:57.717Z,6.31
2022-12-16T00:53:27.318Z,6.20
2022-12-16T00:56:03.064Z,6.46
2022-12-16T00:58:31.307Z,6.39
2022-12-16T01:00:59.587Z,6.49
2022-12-16T01:03:28.198Z,6.44
2022-12-16T01:05:56.652Z,6.23
2022-12-16T01:08:25.086Z,6.28
2022-12-16T01:10:56.097Z,6.38
2022-12-16T01:13:25.851Z,6.44
2022-12-16T01:15:54.142Z,6.35
2022-12-16T01:18:22.517Z,6.51
2022-12-16T01:20:51.399Z,6.39
2022-12-16T01:23:20.050Z,6.13
2022-12-16T01:25:52.235Z,6.24
2022-12-16T01:28:21.819Z,6.32
2022-12-16T01:30:50.077Z,6.40
2022-12-16T01:33:18.426Z,6.56
2022-12-16T01:35:55.841Z,6.53
2022-12-16T01:38:24.799Z,6.54
2022-12-16T01:40:55.228Z,6.36
2022-12-16T01:43:27.145Z,6.39
2022-12-16T01:45:58.088Z,6.26
2022-12-16T01:48:34.188Z,5.48
2022-12-16T01:51:06.221Z,5.38
2022-12-16T01:53:35.671Z,5.74
2022-12-16T01:56:04.768Z,5.63
2022-12-16T01:58:36.306Z,5.95
2022-12-16T02:01:04.762Z,5.76
2022-12-16T02:03:36.940Z,5.58
2022-12-16T02:06:07.719Z,5.85
2022-12-16T02:08:36.705Z,5.62
2022-12-16T02:11:12.186Z,5.89
2022-12-16T02:13:58.240Z,5.64
2022-12-16T02:16:33.238Z,5.33
2022-12-16T02:19:09.047Z,5.20
2022-12-16T02:21:54.940Z,5.18
2022-12-16T02:24:38.235Z,5.36
2022-12-16T02:27:45.395Z,5.24
2022-12-16T02:30:29.906Z,5.38
2022-12-16T02:33:04.044Z,5.26
2022-12-16T02:35:36.790Z,5.37
2022-12-16T02:38:14.893Z,5.40
2022-12-16T02:40:46.078Z,5.41
2022-12-16T02:43:19.821Z,5.40
2022-12-16T02:45:50.291Z,5.36
2022-12-16T02:48:18.665Z,5.43
2022-12-16T02:50:48.610Z,5.46
2022-12-16T02:53:17.040Z,5.18
2022-12-16T02:55:54.229Z,5.34
2022-12-16T02:58:28.729Z,5.35
2022-12-16T03:01:05.357Z,5.47
2022-12-16T03:03:37.635Z,5.54
2022-12-16T03:06:06.740Z,5.71
2022-12-16T03:08:37.921Z,5.64
2022-12-16T03:11:08.194Z,5.69
2022-12-16T03:13:40.581Z,5.56
2022-12-16T03:16:12.329Z,5.44
2022-12-16T03:18:43.354Z,5.51
2022-12-16T03:21:12.385Z,5.39
2022-12-16T03:23:44.487Z,5.47
2022-12-16T03:26:16.747Z,5.24
2022-12-16T03:28:50.546Z,4.95
2022-12-16T03:31:29.179Z,5.02
2022-12-16T03:34:00.514Z,4.98
2022-12-16T03:36:30.968Z,4.88
2022-12-16T03:39:01.508Z,4.73
2022-12-16T03:41:29.633Z,4.89
2022-12-16T03:43:57.844Z,5.30
2022-12-16T03:46:27.950Z,5.05
2022-12-16T03:48:56.317Z,5.10
2022-12-16T03:51:24.544Z,4.78
2022-12-16T03:53:52.783Z,4.84
2022-12-16T03:56:21.046Z,5.16
2022-12-16T03:58:49.300Z,5.09
2022-12-16T04:01:17.573Z,4.96
2022-12-16T04:03:47.247Z,4.94
2022-12-16T04:06:18.563Z,5.02
2022-12-16T04:08:46.895Z,5.12
2022-12-16T04:11:32.770Z,5.02
2022-12-16T04:14:18.625Z,5.26
2022-12-16T04:17:04.647Z,5.19
2022-12-16T04:19:55.313Z,5.29
2022-12-16T04:22:43.982Z,5.24
2022-12-16T04:25:15.372Z,5.19
2022-12-16T04:27:47.180Z,5.21
2022-12-16T04:30:22.298Z,4.89
2022-12-16T04:33:11.796Z,5.05
2022-12-16T04:35:59.086Z,5.16
2022-12-16T04:38:44.967Z,5.28
2022-12-16T04:41:31.085Z,5.18
2022-12-16T04:44:17.185Z,5.24
2022-12-16T04:47:03.137Z,5.20
2022-12-16T04:49:49.195Z,4.98
2022-12-16T04:52:36.958Z,5.00
2022-12-16T04:55:23.373Z,5.11
2022-12-16T04:58:10.958Z,5.16
2022-12-16T05:00:56.864Z,5.08
2022-12-16T05:03:42.797Z,4.89
2022-12-16T05:06:28.708Z,4.93
2022-12-16T05:09:15.884Z,4.89
2022-12-16T05:12:01.759Z,4.94
2022-12-16T05:14:46.978Z,4.99
2022-12-16T05:17:32.769Z,5.11
2022-12-16T05:20:18.796Z,5.06
2022-12-16T05:23:05.244Z,4.83
2022-12-16T05:25:52.402Z,4.88
2022-12-16T05:28:38.407Z,4.87
2022-12-16T05:31:24.372Z,4.98
2022-12-16T05:34:10.283Z,5.26
2022-12-16T05:36:56.416Z,5.11
2022-12-16T05:39:42.366Z,5.28
2022-12-16T05:42:29.657Z,5.23
2022-12-16T05:45:15.537Z,5.34
2022-12-16T05:48:01.372Z,5.19
2022-12-16T05:50:47.250Z,5.38
2022-12-16T05:53:33.622Z,5.10
2022-12-16T05:56:19.687Z,5.18
2022-12-16T05:59:15.193Z,5.11
2022-12-16T06:02:01.382Z,5.37
2022-12-16T06:04:47.536Z,5.06
2022-12-16T06:07:33.296Z,4.86
2022-12-16T06:10:19.178Z,4.61
2022-12-16T06:13:05.637Z,4.35
2022-12-16T06:15:52.576Z,4.32
2022-12-16T06:18:38.479Z,4.29
2022-12-16T06:21:24.358Z,4.26
2022-12-16T06:24:10.403Z,4.11
2022-12-16T06:26:56.547Z,3.93
2022-12-16T06:29:41.584Z,3.73
2022-12-16T06:32:28.643Z,3.55
2022-12-16T06:35:14.766Z,3.70
2022-12-16T06:38:00.615Z,3.99
2022-12-16T06:40:46.666Z,4.08
2022-12-16T06:43:32.892Z,4.22
2022-12-16T06:46:19.122Z,4.25
2022-12-16T06:49:06.559Z,4.07
2022-12-16T06:51:52.636Z,4.24
2022-12-16T06:54:37.691Z,4.18
2022-12-16T06:57:23.700Z,4.33
2022-12-16T07:00:09.813Z,3.77
2022-12-16T07:02:55.794Z,4.09
2022-12-16T07:05:43.386Z,3.65
2022-12-16T07:08:29.179Z,3.81
2022-12-16T07:11:17.053Z,3.93
2022-12-16T07:14:03.226Z,3.67
2022-12-16T07:17:03.674Z,3.88
2022-12-16T07:19:49.587Z,4.04
2022-12-16T07:22:36.805Z,4.21
2022-12-16T07:25:23.255Z,4.09
2022-12-16T07:28:15.126Z,3.97
2022-12-16T07:31:02.203Z,4.10
2022-12-16T07:33:48.270Z,3.97
2022-12-16T07:36:34.426Z,4.14
2022-12-16T07:39:18.013Z,4.07
2022-12-16T07:42:03.795Z,4.07
2022-12-16T07:44:49.848Z,4.04
2022-12-16T07:47:35.737Z,4.14
2022-12-16T07:50:21.645Z,4.22
2022-12-16T07:53:13.120Z,4.35
2022-12-16T07:56:00.426Z,4.63
2022-12-16T07:58:46.209Z,4.71
2022-12-16T08:01:32.249Z,4.45
2022-12-16T08:04:18.253Z,4.61
2022-12-16T08:07:04.156Z,4.54
2022-12-16T08:09:50.049Z,4.28
2022-12-16T08:12:37.444Z,4.30
2022-12-16T08:15:24.272Z,4.67
2022-12-16T08:18:10.779Z,4.81
2022-12-16T08:20:57.237Z,4.93
2022-12-16T08:23:43.047Z,5.13
2022-12-16T08:26:29.135Z,5.13
2022-12-16T08:29:42.625Z,4.84
2022-12-16T08:32:22.020Z,4.61
2022-12-16T08:35:08.018Z,4.83
2022-12-16T08:37:54.516Z,4.65
2022-12-16T08:40:41.268Z,4.84
2022-12-16T08:43:27.228Z,4.83
2022-12-16T08:46:14.512Z,5.02
2022-12-16T08:49:05.848Z,5.05
2022-12-16T08:51:51.581Z,4.62
2022-12-16T08:54:37.750Z,4.75
2022-12-16T08:57:23.706Z,4.78
2022-12-16T09:00:09.387Z,5.02
2022-12-16T09:02:56.777Z,4.89
2022-12-16T09:05:42.890Z,4.76
2022-12-16T09:08:28.766Z,4.58
2022-12-16T09:11:18.917Z,4.67
2022-12-16T09:14:05.339Z,4.45
2022-12-16T09:16:51.409Z,4.32
2022-12-16T09:19:38.823Z,4.58
2022-12-16T09:22:24.799Z,4.51
2022-12-16T09:25:13.111Z,4.12
2022-12-16T09:27:59.398Z,4.37
2022-12-16T09:30:45.385Z,3.96
2022-12-16T09:33:27.556Z,4.23
2022-12-16T09:36:15.246Z,4.18
2022-12-16T09:39:01.002Z,3.97
2022-12-16T09:42:00.316Z,4.56
2022-12-16T09:44:53.327Z,4.35
2022-12-16T09:47:47.406Z,4.44
2022-12-16T09:50:38.912Z,4.75
2022-12-16T09:53:30.235Z,5.10
2022-12-16T09:56:16.933Z,5.24
2022-12-16T09:59:06.417Z,5.39
2022-12-16T10:01:55.001Z,5.90
2022-12-16T10:04:43.708Z,5.83
2022-12-16T10:07:35.084Z,5.86
2022-12-16T10:10:35.458Z,5.70
2022-12-16T10:13:28.487Z,4.92
2022-12-16T10:16:20.649Z,4.83
2022-12-16T10:19:13.941Z,4.82
2022-12-16T10:22:05.103Z,4.74
2022-12-16T10:25:00.238Z,4.78
2022-12-16T10:27:52.897Z,5.07
2022-12-16T10:30:39.311Z,4.97
2022-12-16T10:33:28.018Z,5.39
2022-12-16T10:36:14.580Z,5.36
2022-12-16T10:39:03.083Z,5.48
2022-12-16T10:41:52.013Z,5.64
2022-12-16T10:44:42.977Z,5.39
2022-12-16T10:47:29.776Z,5.22
2022-12-16T10:50:16.000Z,4.69
2022-12-16T10:53:14.216Z,4.66
2022-12-16T10:56:13.067Z,4.70
2022-12-16T10:59:05.691Z,5.08
2022-12-16T11:01:53.332Z,5.02
2022-12-16T11:04:48.182Z,5.06
2022-12-16T11:07:58.742Z,5.26
2022-12-16T11:10:51.240Z,5.21
2022-12-16T11:13:40.066Z,5.12
2022-12-16T11:16:29.517Z,4.90
2022-12-16T11:19:16.948Z,5.22
2022-12-16T11:22:03.425Z,5.32
2022-12-16T11:24:49.854Z,5.14
2022-12-16T11:27:41.979Z,5.18
2022-12-16T11:30:40.184Z,5.10
2022-12-16T11:33:36.005Z,5.09
2022-12-16T11:36:31.171Z,5.31
2022-12-16T11:39:17.506Z,5.38
2022-12-16T11:42:05.983Z,5.38
2022-12-16T11:44:55.549Z,5.29
2022-12-16T11:47:48.481Z,5.02
2022-12-16T11:50:39.233Z,4.92
2022-12-16T11:53:57.154Z,4.55
2022-12-16T11:56:45.637Z,4.94
2022-12-16T11:59:40.243Z,5.43
2022-12-16T12:02:30.656Z,5.05
2022-12-16T12:05:16.555Z,5.07
2022-12-16T12:08:06.899Z,5.09
2022-12-16T12:11:08.197Z,4.72
2022-12-16T12:14:05.073Z,4.77
2022-12-16T12:16:58.346Z,4.87
2022-12-16T12:20:07.422Z,4.62
2022-12-16T12:22:54.980Z,4.39
2022-12-16T12:25:47.008Z,4.61
2022-12-16T12:28:42.691Z,4.27
2022-12-16T12:31:39.384Z,4.55
2022-12-16T12:34:31.766Z,4.76
2022-12-16T12:37:24.123Z,4.58
2022-12-16T12:40:14.408Z,4.74
2022-12-16T12:43:04.337Z,4.88
2022-12-16T12:46:14.159Z,4.96
2022-12-16T12:49:05.093Z,4.72
2022-12-16T12:51:56.433Z,4.66
2022-12-16T12:54:50.332Z,4.82
2022-12-16T12:57:39.748Z,4.84
2022-12-16T13:00:33.984Z,5.07
2022-12-16T13:03:24.618Z,5.28
2022-12-16T13:06:10.268Z,4.91
2022-12-16T13:09:12.444Z,4.73
2022-12-16T13:12:06.153Z,5.09
2022-12-16T13:15:12.661Z,5.05
2022-12-16T13:18:39.714Z,4.52
2022-12-16T13:21:59.437Z,4.64
2022-12-16T13:25:01.574Z,4.25
2022-12-16T13:27:48.678Z,4.48
2022-12-16T13:30:43.060Z,4.65
2022-12-16T13:33:45.412Z,4.37
2022-12-16T13:36:33.467Z,4.47
2022-12-16T13:39:36.464Z,4.52
2022-12-16T13:42:22.871Z,4.59
2022-12-16T13:45:34.498Z,4.42
2022-12-16T13:48:23.073Z,4.15
2022-12-16T13:51:18.646Z,4.46
2022-12-16T13:54:08.633Z,3.94
2022-12-16T13:56:58.694Z,4.03
2022-12-16T13:59:47.867Z,4.16
2022-12-16T14:02:42.933Z,4.02
2022-12-16T14:05:39.542Z,3.84
2022-12-16T14:08:31.430Z,3.47
2022-12-16T14:11:20.221Z,3.50
2022-12-16T14:14:11.495Z,3.66
2022-12-16T14:17:05.573Z,3.80
2022-12-16T14:19:57.006Z,3.77
2022-12-16T14:22:50.070Z,3.73
2022-12-16T14:25:54.334Z,3.66
2022-12-16T14:28:46.336Z,3.33
2022-12-16T14:31:34.939Z,3.44
2022-12-16T14:34:22.690Z,3.39
2022-12-16T14:37:08.666Z,3.33
2022-12-16T14:39:57.489Z,3.40
2022-12-16T14:42:46.857Z,3.26
2022-12-16T14:45:45.921Z,3.23
2022-12-16T14:48:47.638Z,3.54
2022-12-16T14:51:46.769Z,3.54
2022-12-16T14:54:41.935Z,3.29
2022-12-16T14:57:32.938Z,3.17
2022-12-16T15:00:28.837Z,3.34
2022-12-16T15:03:16.108Z,3.18
2022-12-16T15:06:02.138Z,3.17
2022-12-16T15:08:50.168Z,3.11
2022-12-16T15:11:38.753Z,3.15
2022-12-16T15:14:25.077Z,3.33
2022-12-16T15:17:12.361Z,3.41
2022-12-16T15:20:03.796Z,3.39
2022-12-16T15:22:50.117Z,3.49
2022-12-16T15:25:38.008Z,3.51
2022-12-16T15:28:23.887Z,3.64
2022-12-16T15:31:09.969Z,3.70
2022-12-16T15:33:58.246Z,3.61
2022-12-16T15:36:46.634Z,3.77
2022-12-16T15:39:40.827Z,3.87
2022-12-16T15:42:38.066Z,3.90
2022-12-16T15:45:25.112Z,3.47
2022-12-16T15:48:10.938Z,3.57
2022-12-16T15:50:58.288Z,3.63
2022-12-16T15:53:49.018Z,3.72
2022-12-16T15:56:38.901Z,3.41
2022-12-16T15:59:41.468Z,3.29
2022-12-16T16:02:34.481Z,3.14
2022-12-16T16:05:20.559Z,3.35
2022-12-16T16:08:13.132Z,3.31
2022-12-16T16:11:00.799Z,3.15
2022-12-16T16:13:46.786Z,3.47
2022-12-16T16:16:32.617Z,3.36
2022-12-16T16:19:19.293Z,3.37
2022-12-16T16:22:05.022Z,3.17
2022-12-16T16:24:52.330Z,2.87
2022-12-16T16:27:38.661Z,2.96
2022-12-16T16:30:25.563Z,3.22
2022-12-16T16:33:11.530Z,3.13
2022-12-16T16:35:57.496Z,2.95
2022-12-16T16:38:43.211Z,3.14
2022-12-16T16:41:32.753Z,3.30
2022-12-16T16:44:19.942Z,3.16
2022-12-16T16:47:02.526Z,3.15
2022-12-16T16:49:49.966Z,3.22
2022-12-16T16:52:37.910Z,3.38
2022-12-16T16:55:24.189Z,3.26
2022-12-16T16:58:11.557Z,3.02
2022-12-16T17:01:02.813Z,3.08
2022-12-16T17:03:48.962Z,3.12
2022-12-16T17:06:34.972Z,3.54
2022-12-16T17:09:39.627Z,3.30
2022-12-16T17:12:46.560Z,3.51
2022-12-16T17:15:39.096Z,3.57
2022-12-16T17:18:25.621Z,3.45
2022-12-16T17:21:12.029Z,3.31
2022-12-16T17:23:57.893Z,3.58
2022-12-16T17:26:43.877Z,3.69
2022-12-16T17:29:36.781Z,3.61
2022-12-16T17:32:24.335Z,3.61
2022-12-16T17:35:10.291Z,3.36
2022-12-16T17:37:56.258Z,3.28
2022-12-16T17:40:42.167Z,3.35
2022-12-16T17:43:28.263Z,3.44
2022-12-16T17:46:15.286Z,3.71
2022-12-16T17:49:02.305Z,3.76
2022-12-16T17:51:48.150Z,3.45
2022-12-16T17:54:34.087Z,3.36
2022-12-16T17:57:19.842Z,3.77
2022-12-16T18:00:05.739Z,3.56
2022-12-16T18:02:47.987Z,3.44
2022-12-16T18:05:42.403Z,3.53
2022-12-16T18:08:29.902Z,3.55
2022-12-16T18:11:18.099Z,3.28
2022-12-16T18:14:03.830Z,3.64
2022-12-16T18:16:49.742Z,3.61
2022-12-16T18:19:35.823Z,3.59
2022-12-16T18:22:37.531Z,3.66
2022-12-16T18:25:23.979Z,3.75
2022-12-16T18:28:09.818Z,3.56
2022-12-16T18:31:10.268Z,3.40
2022-12-16T18:33:55.986Z,3.56
2022-12-16T18:36:41.912Z,3.50
2022-12-16T18:39:29.127Z,3.51
2022-12-16T18:42:15.072Z,3.55
2022-12-16T18:45:01.434Z,3.62
2022-12-16T18:47:47.623Z,3.62
2022-12-16T18:50:37.778Z,3.77
2022-12-16T18:53:24.202Z,3.69
2022-12-16T18:56:19.630Z,3.60
2022-12-16T18:59:10.833Z,3.81
2022-12-16T19:01:56.903Z,3.97
2022-12-16T19:04:42.727Z,3.67
2022-12-16T19:07:31.780Z,3.55
2022-12-16T19:10:19.649Z,3.69
2022-12-16T19:13:06.896Z,3.86
2022-12-16T19:15:52.880Z,3.74
2022-12-16T19:18:38.782Z,3.64
2022-12-16T19:21:24.668Z,3.11
2022-12-16T19:24:10.772Z,3.44
2022-12-16T19:26:56.846Z,3.53
2022-12-16T19:29:43.905Z,3.38
2022-12-16T19:32:30.053Z,3.51
2022-12-16T19:35:16.073Z,3.46
2022-12-16T19:38:01.780Z,3.61
2022-12-16T19:40:47.411Z,3.27
2022-12-16T19:43:34.520Z,3.61
2022-12-16T19:46:23.937Z,3.48
2022-12-16T19:49:10.147Z,3.43
2022-12-16T19:55:03.956Z,3.73
2022-12-16T19:57:49.905Z,3.48
2022-12-16T20:00:35.597Z,3.66
2022-12-16T20:03:22.852Z,3.38
2022-12-16T20:06:20.039Z,3.63
2022-12-16T20:09:08.492Z,3.68
2022-12-16T20:11:55.521Z,3.77
2022-12-16T20:14:41.989Z,3.36
2022-12-16T20:17:28.206Z,3.22
2022-12-16T20:20:15.441Z,3.32
2022-12-16T20:23:01.370Z,3.38
2022-12-16T20:25:47.220Z,3.14
2022-12-16T20:28:33.149Z,3.16
2022-12-16T20:31:19.647Z,3.02
2022-12-16T20:34:05.670Z,2.93
2022-12-16T20:36:55.151Z,3.23
2022-12-16T20:39:42.126Z,3.10
2022-12-16T20:42:27.927Z,2.96
2022-12-16T20:45:13.882Z,3.04
2022-12-16T20:47:59.822Z,2.92
2022-12-16T20:50:45.703Z,2.82
2022-12-16T20:53:32.940Z,2.86
2022-12-16T20:56:19.529Z,3.03
2022-12-16T20:59:05.482Z,3.17
2022-12-16T21:02:21.214Z,3.27
2022-12-16T21:04:57.277Z,2.95
2022-12-16T21:07:45.388Z,3.12
2022-12-16T21:10:32.528Z,3.18
2022-12-16T21:13:24.662Z,3.30
2022-12-16T21:16:10.570Z,3.08
2022-12-16T21:18:56.466Z,3.29
2022-12-16T21:21:42.560Z,3.38
2022-12-16T21:24:28.588Z,3.37
2022-12-16T21:27:15.708Z,3.47
2022-12-16T21:30:01.630Z,3.36
2022-12-16T21:32:47.575Z,3.33
2022-12-16T21:35:33.529Z,3.47
2022-12-16T21:38:19.479Z,3.33
2022-12-16T21:41:10.088Z,3.52
2022-12-16T21:43:56.698Z,3.36
2022-12-16T21:46:42.460Z,3.28
2022-12-16T21:49:28.455Z,2.97
2022-12-16T21:52:14.205Z,2.70
2022-12-16T21:55:00.206Z,2.75
2022-12-16T21:57:46.026Z,2.80
2022-12-16T22:00:34.081Z,2.73
2022-12-16T22:03:20.035Z,2.64
2022-12-16T22:06:05.971Z,2.99
2022-12-16T22:08:52.063Z,2.93
2022-12-16T22:11:37.928Z,3.17
2022-12-16T22:14:23.688Z,3.29
2022-12-16T22:17:10.984Z,2.90
2022-12-16T22:19:57.012Z,3.11
2022-12-16T22:22:42.909Z,3.02
2022-12-16T22:25:28.861Z,2.65
2022-12-16T22:28:14.769Z,2.68
2022-12-16T22:31:00.773Z,2.74
2022-12-16T22:33:48.644Z,2.84
2022-12-16T22:36:20.396Z,3.70
2022-12-16T22:36:34.663Z,2.86
2022-12-16T22:39:20.424Z,2.73
2022-12-16T22:42:06.266Z,2.89
2022-12-16T22:44:52.013Z,2.79
2022-12-16T22:47:38.029Z,2.90
2022-12-16T22:50:26.460Z,3.05
2022-12-16T22:53:12.345Z,3.19
2022-12-16T22:56:01.916Z,2.78
2022-12-16T22:58:48.081Z,2.83
2022-12-16T23:01:34.097Z,3.02
2022-12-16T23:04:20.184Z,2.94
2022-12-16T23:07:07.468Z,2.75
2022-12-16T23:09:53.510Z,3.06
2022-12-16T23:12:39.940Z,2.96
2022-12-16T23:15:28.469Z,3.04
2022-12-16T23:18:14.514Z,2.79
2022-12-16T23:21:04.025Z,2.72
2022-12-16T23:23:51.342Z,2.58
2022-12-16T23:26:38.627Z,2.51
2022-12-16T23:29:24.577Z,2.48
2022-12-16T23:32:10.514Z,2.48
2022-12-16T23:34:59.029Z,2.49
2022-12-16T23:37:45.030Z,2.51
2022-12-16T23:40:32.184Z,2.65
2022-12-16T23:43:18.030Z,2.60
2022-12-16T23:46:03.983Z,2.58
2022-12-16T23:48:49.966Z,2.44
2022-12-16T23:51:35.950Z,2.49
2022-12-16T23:54:21.680Z,2.32
2022-12-16T23:57:08.901Z,2.46
2022-12-16T23:59:55.678Z,2.72
